sensor_id;sensor_type;location;lat;lon;timestamp;temperature;humidity
45233;DHT22;30969;51.052;17.056;2022-12-18T00:01:42;-2.10;88.30
45233;DHT22;30969;51.052;17.056;2022-12-18T00:06:46;-1.90;86.60
45233;DHT22;30969;51.052;17.056;2022-12-18T00:11:49;-1.80;85.70
45233;DHT22;30969;51.052;17.056;2022-12-18T00:16:54;-1.70;84.90
45233;DHT22;30969;51.052;17.056;2022-12-18T00:21:58;-1.60;84.40
45233;DHT22;30969;51.052;17.056;2022-12-18T00:27:02;-1.50;83.90
45233;DHT22;30969;51.052;17.056;2022-12-18T00:32:07;-1.50;83.50
45233;DHT22;30969;51.052;17.056;2022-12-18T00:37:11;-1.40;83.10
45233;DHT22;30969;51.052;17.056;2022-12-18T00:42:21;-1.40;83.00
45233;DHT22;30969;51.052;17.056;2022-12-18T00:47:40;-1.40;83.00
45233;DHT22;30969;51.052;17.056;2022-12-18T00:52:43;-1.30;82.70
45233;DHT22;30969;51.052;17.056;2022-12-18T00:57:47;-1.20;82.40
45233;DHT22;30969;51.052;17.056;2022-12-18T01:02:51;-1.20;82.20
45233;DHT22;30969;51.052;17.056;2022-12-18T01:07:56;-1.20;82.10
45233;DHT22;30969;51.052;17.056;2022-12-18T01:12:59;-1.10;82.00
45233;DHT22;30969;51.052;17.056;2022-12-18T01:18:07;-1.10;81.60
45233;DHT22;30969;51.052;17.056;2022-12-18T01:23:10;-1.20;81.50
45233;DHT22;30969;51.052;17.056;2022-12-18T01:28:14;-1.20;81.50
45233;DHT22;30969;51.052;17.056;2022-12-18T01:33:19;-1.10;81.50
45233;DHT22;30969;51.052;17.056;2022-12-18T01:38:22;-1.00;81.30
45233;DHT22;30969;51.052;17.056;2022-12-18T01:43:44;-1.10;81.00
45233;DHT22;30969;51.052;17.056;2022-12-18T01:48:51;-1.10;81.10
45233;DHT22;30969;51.052;17.056;2022-12-18T01:53:56;-1.00;81.10
45233;DHT22;30969;51.052;17.056;2022-12-18T01:59:02;-1.10;80.50
45233;DHT22;30969;51.052;17.056;2022-12-18T02:04:21;-1.10;80.70
45233;DHT22;30969;51.052;17.056;2022-12-18T02:09:30;-1.10;80.50
45233;DHT22;30969;51.052;17.056;2022-12-18T02:14:38;-1.20;80.40
45233;DHT22;30969;51.052;17.056;2022-12-18T02:19:59;-1.20;80.60
45233;DHT22;30969;51.052;17.056;2022-12-18T02:25:18;-1.30;80.40
45233;DHT22;30969;51.052;17.056;2022-12-18T02:30:27;-1.20;80.60
45233;DHT22;30969;51.052;17.056;2022-12-18T02:35:33;-1.20;81.50
45233;DHT22;30969;51.052;17.056;2022-12-18T02:40:38;-1.20;80.40
45233;DHT22;30969;51.052;17.056;2022-12-18T02:45:49;-1.10;80.50
45233;DHT22;30969;51.052;17.056;2022-12-18T02:50:59;-1.00;80.40
45233;DHT22;30969;51.052;17.056;2022-12-18T02:56:07;-1.00;80.20
45233;DHT22;30969;51.052;17.056;2022-12-18T03:01:18;-1.00;79.90
45233;DHT22;30969;51.052;17.056;2022-12-18T03:06:27;-0.90;79.90
45233;DHT22;30969;51.052;17.056;2022-12-18T03:11:34;-0.90;79.80
45233;DHT22;30969;51.052;17.056;2022-12-18T03:17:01;-0.80;79.80
45233;DHT22;30969;51.052;17.056;2022-12-18T03:22:06;-0.80;79.60
45233;DHT22;30969;51.052;17.056;2022-12-18T03:27:15;-0.70;79.60
45233;DHT22;30969;51.052;17.056;2022-12-18T03:32:26;-0.60;79.40
45233;DHT22;30969;51.052;17.056;2022-12-18T03:37:32;-0.60;79.30
45233;DHT22;30969;51.052;17.056;2022-12-18T03:42:43;-0.50;79.20
45233;DHT22;30969;51.052;17.056;2022-12-18T03:47:57;-0.50;79.10
45233;DHT22;30969;51.052;17.056;2022-12-18T03:53:07;-0.40;79.00
45233;DHT22;30969;51.052;17.056;2022-12-18T03:58:19;-0.30;78.80
45233;DHT22;30969;51.052;17.056;2022-12-18T04:03:24;-0.30;78.70
45233;DHT22;30969;51.052;17.056;2022-12-18T04:08:29;-0.30;78.70
45233;DHT22;30969;51.052;17.056;2022-12-18T04:13:36;-0.30;78.30
45233;DHT22;30969;51.052;17.056;2022-12-18T04:18:41;-0.30;78.10
45233;DHT22;30969;51.052;17.056;2022-12-18T04:23:44;-0.20;78.10
45233;DHT22;30969;51.052;17.056;2022-12-18T04:28:48;-0.20;78.10
45233;DHT22;30969;51.052;17.056;2022-12-18T04:33:53;-0.30;77.70
45233;DHT22;30969;51.052;17.056;2022-12-18T04:38:57;-0.20;77.60
45233;DHT22;30969;51.052;17.056;2022-12-18T04:44:00;-0.20;77.50
45233;DHT22;30969;51.052;17.056;2022-12-18T04:49:05;-0.20;77.30
45233;DHT22;30969;51.052;17.056;2022-12-18T04:54:08;-0.20;77.00
45233;DHT22;30969;51.052;17.056;2022-12-18T04:59:12;-0.20;76.90
45233;DHT22;30969;51.052;17.056;2022-12-18T05:04:17;-0.30;76.80
45233;DHT22;30969;51.052;17.056;2022-12-18T05:09:21;-0.20;76.70
45233;DHT22;30969;51.052;17.056;2022-12-18T05:14:24;-0.20;76.60
45233;DHT22;30969;51.052;17.056;2022-12-18T05:19:30;-0.20;76.60
45233;DHT22;30969;51.052;17.056;2022-12-18T05:24:34;-0.30;76.30
45233;DHT22;30969;51.052;17.056;2022-12-18T05:29:37;-0.30;76.30
45233;DHT22;30969;51.052;17.056;2022-12-18T05:34:43;-0.30;76.20
45233;DHT22;30969;51.052;17.056;2022-12-18T05:39:46;-0.30;75.90
45233;DHT22;30969;51.052;17.056;2022-12-18T05:44:50;-0.30;76.00
45233;DHT22;30969;51.052;17.056;2022-12-18T05:49:55;-0.30;75.90
45233;DHT22;30969;51.052;17.056;2022-12-18T05:54:58;-0.30;75.80
45233;DHT22;30969;51.052;17.056;2022-12-18T06:00:03;-0.30;75.90
45233;DHT22;30969;51.052;17.056;2022-12-18T06:05:08;-0.30;75.70
45233;DHT22;30969;51.052;17.056;2022-12-18T06:10:12;-0.30;75.70
45233;DHT22;30969;51.052;17.056;2022-12-18T06:15:17;-0.30;75.60
45233;DHT22;30969;51.052;17.056;2022-12-18T06:20:22;-0.30;75.20
45233;DHT22;30969;51.052;17.056;2022-12-18T06:25:31;-0.40;75.00
45233;DHT22;30969;51.052;17.056;2022-12-18T06:30:35;-0.30;74.80
45233;DHT22;30969;51.052;17.056;2022-12-18T06:35:40;-0.40;74.70
45233;DHT22;30969;51.052;17.056;2022-12-18T06:40:44;-0.40;74.80
45233;DHT22;30969;51.052;17.056;2022-12-18T06:45:47;-0.30;75.10
45233;DHT22;30969;51.052;17.056;2022-12-18T06:50:56;-0.30;75.10
45233;DHT22;30969;51.052;17.056;2022-12-18T06:56:00;-0.40;74.80
45233;DHT22;30969;51.052;17.056;2022-12-18T07:01:12;-0.40;74.70
45233;DHT22;30969;51.052;17.056;2022-12-18T07:06:19;-0.40;74.30
45233;DHT22;30969;51.052;17.056;2022-12-18T07:11:23;-0.40;74.50
45233;DHT22;30969;51.052;17.056;2022-12-18T07:16:27;-0.40;74.60
45233;DHT22;30969;51.052;17.056;2022-12-18T07:21:32;-0.40;74.60
45233;DHT22;30969;51.052;17.056;2022-12-18T07:26:36;-0.40;74.50
45233;DHT22;30969;51.052;17.056;2022-12-18T07:31:39;-0.40;74.40
45233;DHT22;30969;51.052;17.056;2022-12-18T07:36:44;-0.40;74.30
45233;DHT22;30969;51.052;17.056;2022-12-18T07:41:47;-0.40;74.20
45233;DHT22;30969;51.052;17.056;2022-12-18T07:47:11;-0.40;74.40
45233;DHT22;30969;51.052;17.056;2022-12-18T07:52:16;-0.40;74.30
45233;DHT22;30969;51.052;17.056;2022-12-18T07:57:26;-0.40;74.00
45233;DHT22;30969;51.052;17.056;2022-12-18T08:02:50;-0.40;74.00
45233;DHT22;30969;51.052;17.056;2022-12-18T08:07:55;-0.40;74.90
45233;DHT22;30969;51.052;17.056;2022-12-18T08:12:59;-0.40;73.90
45233;DHT22;30969;51.052;17.056;2022-12-18T08:18:06;-0.40;73.90
45233;DHT22;30969;51.052;17.056;2022-12-18T08:23:16;-0.40;73.80
45233;DHT22;30969;51.052;17.056;2022-12-18T08:28:20;-0.30;73.70
45233;DHT22;30969;51.052;17.056;2022-12-18T08:33:23;-0.30;73.60
45233;DHT22;30969;51.052;17.056;2022-12-18T08:38:30;-0.30;73.50
45233;DHT22;30969;51.052;17.056;2022-12-18T08:43:34;-0.30;73.40
45233;DHT22;30969;51.052;17.056;2022-12-18T08:48:55;-0.30;73.50
45233;DHT22;30969;51.052;17.056;2022-12-18T08:54:00;-0.20;73.50
45233;DHT22;30969;51.052;17.056;2022-12-18T08:59:05;-0.20;73.40
45233;DHT22;30969;51.052;17.056;2022-12-18T09:04:09;-0.20;74.30
45233;DHT22;30969;51.052;17.056;2022-12-18T09:09:14;-0.10;73.30
45233;DHT22;30969;51.052;17.056;2022-12-18T09:14:17;-0.10;73.00
45233;DHT22;30969;51.052;17.056;2022-12-18T09:19:21;-0.10;73.00
45233;DHT22;30969;51.052;17.056;2022-12-18T09:24:26;-0.10;72.90
45233;DHT22;30969;51.052;17.056;2022-12-18T09:29:30;0.00;72.90
45233;DHT22;30969;51.052;17.056;2022-12-18T09:34:33;0.00;72.90
45233;DHT22;30969;51.052;17.056;2022-12-18T09:39:38;0.00;72.80
45233;DHT22;30969;51.052;17.056;2022-12-18T09:44:44;0.00;72.70
45233;DHT22;30969;51.052;17.056;2022-12-18T09:49:51;0.00;72.60
45233;DHT22;30969;51.052;17.056;2022-12-18T09:55:01;0.00;72.50
45233;DHT22;30969;51.052;17.056;2022-12-18T10:00:18;0.00;72.30
45233;DHT22;30969;51.052;17.056;2022-12-18T10:05:31;0.00;72.30
45233;DHT22;30969;51.052;17.056;2022-12-18T10:10:42;0.10;72.30
45233;DHT22;30969;51.052;17.056;2022-12-18T10:15:58;0.10;72.30
45233;DHT22;30969;51.052;17.056;2022-12-18T10:21:04;0.10;72.20
45233;DHT22;30969;51.052;17.056;2022-12-18T10:26:11;0.10;72.10
45233;DHT22;30969;51.052;17.056;2022-12-18T10:31:17;0.10;72.10
45233;DHT22;30969;51.052;17.056;2022-12-18T10:36:22;0.10;72.00
45233;DHT22;30969;51.052;17.056;2022-12-18T10:41:28;0.10;72.00
45233;DHT22;30969;51.052;17.056;2022-12-18T10:46:33;0.10;72.20
45233;DHT22;30969;51.052;17.056;2022-12-18T10:51:37;0.20;71.90
45233;DHT22;30969;51.052;17.056;2022-12-18T10:56:43;0.20;71.80
45233;DHT22;30969;51.052;17.056;2022-12-18T11:01:50;0.20;71.90
45233;DHT22;30969;51.052;17.056;2022-12-18T11:06:56;0.20;71.70
45233;DHT22;30969;51.052;17.056;2022-12-18T11:12:02;0.20;71.70
45233;DHT22;30969;51.052;17.056;2022-12-18T11:17:18;0.20;71.40
45233;DHT22;30969;51.052;17.056;2022-12-18T11:22:29;0.20;71.30
45233;DHT22;30969;51.052;17.056;2022-12-18T11:27:34;0.20;71.40
45233;DHT22;30969;51.052;17.056;2022-12-18T11:32:39;0.20;71.20
45233;DHT22;30969;51.052;17.056;2022-12-18T11:37:49;0.20;71.20
45233;DHT22;30969;51.052;17.056;2022-12-18T11:43:00;0.20;71.20
45233;DHT22;30969;51.052;17.056;2022-12-18T11:48:14;0.20;71.20
45233;DHT22;30969;51.052;17.056;2022-12-18T11:53:20;0.20;71.30
45233;DHT22;30969;51.052;17.056;2022-12-18T11:58:38;0.30;71.20
45233;DHT22;30969;51.052;17.056;2022-12-18T12:03:59;0.30;71.10
45233;DHT22;30969;51.052;17.056;2022-12-18T12:09:13;0.30;71.00
45233;DHT22;30969;51.052;17.056;2022-12-18T12:14:38;0.40;70.90
45233;DHT22;30969;51.052;17.056;2022-12-18T12:19:53;0.30;70.90
45233;DHT22;30969;51.052;17.056;2022-12-18T12:25:09;0.40;70.90
45233;DHT22;30969;51.052;17.056;2022-12-18T12:30:20;0.40;71.00
45233;DHT22;30969;51.052;17.056;2022-12-18T12:35:38;0.40;71.00
45233;DHT22;30969;51.052;17.056;2022-12-18T12:40:51;0.40;70.90
45233;DHT22;30969;51.052;17.056;2022-12-18T12:46:07;0.40;70.90
45233;DHT22;30969;51.052;17.056;2022-12-18T12:51:16;0.40;70.90
45233;DHT22;30969;51.052;17.056;2022-12-18T12:56:22;0.40;70.80
45233;DHT22;30969;51.052;17.056;2022-12-18T13:01:36;0.40;70.70
45233;DHT22;30969;51.052;17.056;2022-12-18T13:06:47;0.40;70.50
45233;DHT22;30969;51.052;17.056;2022-12-18T13:12:03;0.40;70.40
45233;DHT22;30969;51.052;17.056;2022-12-18T13:17:30;0.40;70.50
45233;DHT22;30969;51.052;17.056;2022-12-18T13:22:36;0.40;70.50
45233;DHT22;30969;51.052;17.056;2022-12-18T13:27:57;0.30;71.40
45233;DHT22;30969;51.052;17.056;2022-12-18T13:39:33;0.30;70.40
45233;DHT22;30969;51.052;17.056;2022-12-18T13:44:40;0.30;70.50
45233;DHT22;30969;51.052;17.056;2022-12-18T13:49:44;0.30;70.60
45233;DHT22;30969;51.052;17.056;2022-12-18T13:54:51;0.30;70.50
45233;DHT22;30969;51.052;17.056;2022-12-18T13:59:57;0.30;70.50
45233;DHT22;30969;51.052;17.056;2022-12-18T14:05:01;0.20;70.40
45233;DHT22;30969;51.052;17.056;2022-12-18T14:10:14;0.10;70.20
45233;DHT22;30969;51.052;17.056;2022-12-18T14:15:40;0.10;70.20
45233;DHT22;30969;51.052;17.056;2022-12-18T14:20:49;0.00;70.20
45233;DHT22;30969;51.052;17.056;2022-12-18T14:25:56;0.00;70.20
45233;DHT22;30969;51.052;17.056;2022-12-18T14:31:17;0.00;70.30
45233;DHT22;30969;51.052;17.056;2022-12-18T14:36:23;-0.10;70.30
45233;DHT22;30969;51.052;17.056;2022-12-18T14:41:28;-0.10;70.30
45233;DHT22;30969;51.052;17.056;2022-12-18T14:46:35;-0.20;71.30
45233;DHT22;30969;51.052;17.056;2022-12-18T14:51:41;-0.20;70.30
45233;DHT22;30969;51.052;17.056;2022-12-18T14:56:56;-0.20;70.40
45233;DHT22;30969;51.052;17.056;2022-12-18T15:02:08;-0.30;70.40
45233;DHT22;30969;51.052;17.056;2022-12-18T15:07:17;-0.30;70.40
45233;DHT22;30969;51.052;17.056;2022-12-18T15:12:33;-0.30;70.40
45233;DHT22;30969;51.052;17.056;2022-12-18T15:17:37;-0.30;70.40
45233;DHT22;30969;51.052;17.056;2022-12-18T15:22:40;-0.40;70.30
45233;DHT22;30969;51.052;17.056;2022-12-18T15:27:47;-0.40;70.40
45233;DHT22;30969;51.052;17.056;2022-12-18T15:32:52;-0.40;70.40
45233;DHT22;30969;51.052;17.056;2022-12-18T15:37:56;-0.50;70.40
45233;DHT22;30969;51.052;17.056;2022-12-18T15:43:01;-0.60;70.20
45233;DHT22;30969;51.052;17.056;2022-12-18T15:48:25;-0.60;70.40
45233;DHT22;30969;51.052;17.056;2022-12-18T15:53:32;-0.60;70.60
45233;DHT22;30969;51.052;17.056;2022-12-18T15:58:38;-0.70;70.60
45233;DHT22;30969;51.052;17.056;2022-12-18T16:03:41;-0.70;70.50
45233;DHT22;30969;51.052;17.056;2022-12-18T16:08:46;-0.70;70.30
45233;DHT22;30969;51.052;17.056;2022-12-18T16:13:51;-0.80;70.30
45233;DHT22;30969;51.052;17.056;2022-12-18T16:18:58;-0.80;70.30
45233;DHT22;30969;51.052;17.056;2022-12-18T16:24:11;-0.80;70.20
45233;DHT22;30969;51.052;17.056;2022-12-18T16:29:23;-0.90;70.20
45233;DHT22;30969;51.052;17.056;2022-12-18T16:34:30;-1.00;70.30
45233;DHT22;30969;51.052;17.056;2022-12-18T16:39:38;-1.10;70.00
45233;DHT22;30969;51.052;17.056;2022-12-18T16:44:44;-1.10;70.00
45233;DHT22;30969;51.052;17.056;2022-12-18T16:49:48;-1.20;70.00
45233;DHT22;30969;51.052;17.056;2022-12-18T16:54:54;-1.30;70.00
45233;DHT22;30969;51.052;17.056;2022-12-18T16:59:59;-1.40;69.90
45233;DHT22;30969;51.052;17.056;2022-12-18T17:05:09;-1.50;69.90
45233;DHT22;30969;51.052;17.056;2022-12-18T17:10:14;-1.60;69.70
45233;DHT22;30969;51.052;17.056;2022-12-18T17:15:22;-1.70;69.70
45233;DHT22;30969;51.052;17.056;2022-12-18T17:20:31;-1.80;69.80
45233;DHT22;30969;51.052;17.056;2022-12-18T17:25:38;-1.90;69.80
45233;DHT22;30969;51.052;17.056;2022-12-18T17:30:43;-1.90;69.80
45233;DHT22;30969;51.052;17.056;2022-12-18T17:35:50;-2.00;69.80
45233;DHT22;30969;51.052;17.056;2022-12-18T17:40:53;-2.10;70.90
45233;DHT22;30969;51.052;17.056;2022-12-18T17:46:02;-2.10;70.00
45233;DHT22;30969;51.052;17.056;2022-12-18T17:51:09;-2.10;69.90
45233;DHT22;30969;51.052;17.056;2022-12-18T17:56:15;-2.20;69.90
45233;DHT22;30969;51.052;17.056;2022-12-18T18:01:24;-2.20;69.90
45233;DHT22;30969;51.052;17.056;2022-12-18T18:06:27;-2.20;69.90
45233;DHT22;30969;51.052;17.056;2022-12-18T18:11:33;-2.30;69.90
45233;DHT22;30969;51.052;17.056;2022-12-18T18:17:00;-2.30;70.00
45233;DHT22;30969;51.052;17.056;2022-12-18T18:22:06;-2.30;69.90
45233;DHT22;30969;51.052;17.056;2022-12-18T18:27:10;-2.40;70.90
45233;DHT22;30969;51.052;17.056;2022-12-18T18:32:15;-2.40;69.80
45233;DHT22;30969;51.052;17.056;2022-12-18T18:37:19;-2.50;69.80
45233;DHT22;30969;51.052;17.056;2022-12-18T18:42:23;-2.50;70.10
45233;DHT22;30969;51.052;17.056;2022-12-18T18:47:29;-2.60;70.10
45233;DHT22;30969;51.052;17.056;2022-12-18T18:52:33;-2.60;70.00
45233;DHT22;30969;51.052;17.056;2022-12-18T18:57:39;-2.60;69.90
45233;DHT22;30969;51.052;17.056;2022-12-18T19:02:45;-2.70;69.80
45233;DHT22;30969;51.052;17.056;2022-12-18T19:07:49;-2.70;69.90
45233;DHT22;30969;51.052;17.056;2022-12-18T19:12:52;-2.80;69.70
45233;DHT22;30969;51.052;17.056;2022-12-18T19:18:15;-2.80;69.70
45233;DHT22;30969;51.052;17.056;2022-12-18T19:23:19;-2.90;69.70
45233;DHT22;30969;51.052;17.056;2022-12-18T19:28:22;-3.00;69.70
45233;DHT22;30969;51.052;17.056;2022-12-18T19:33:32;-3.00;69.80
45233;DHT22;30969;51.052;17.056;2022-12-18T19:38:44;-3.00;69.80
45233;DHT22;30969;51.052;17.056;2022-12-18T19:43:50;-3.00;69.40
45233;DHT22;30969;51.052;17.056;2022-12-18T19:48:57;-3.10;69.30
45233;DHT22;30969;51.052;17.056;2022-12-18T19:54:02;-3.10;69.30
45233;DHT22;30969;51.052;17.056;2022-12-18T19:59:09;-3.20;69.40
45233;DHT22;30969;51.052;17.056;2022-12-18T20:04:17;-3.20;69.30
45233;DHT22;30969;51.052;17.056;2022-12-18T20:09:21;-3.20;69.30
45233;DHT22;30969;51.052;17.056;2022-12-18T20:14:26;-3.30;69.20
45233;DHT22;30969;51.052;17.056;2022-12-18T20:19:32;-3.30;69.10
45233;DHT22;30969;51.052;17.056;2022-12-18T20:24:39;-3.30;69.20
45233;DHT22;30969;51.052;17.056;2022-12-18T20:29:51;-3.40;69.30
45233;DHT22;30969;51.052;17.056;2022-12-18T20:35:03;-3.40;69.20
45233;DHT22;30969;51.052;17.056;2022-12-18T20:40:11;-3.40;69.30
45233;DHT22;30969;51.052;17.056;2022-12-18T20:45:15;-3.40;69.20
45233;DHT22;30969;51.052;17.056;2022-12-18T20:50:23;-3.40;69.10
45233;DHT22;30969;51.052;17.056;2022-12-18T20:55:27;-3.50;69.10
45233;DHT22;30969;51.052;17.056;2022-12-18T21:00:37;-3.50;69.00
45233;DHT22;30969;51.052;17.056;2022-12-18T21:05:45;-3.60;69.10
45233;DHT22;30969;51.052;17.056;2022-12-18T21:10:52;-3.60;69.00
45233;DHT22;30969;51.052;17.056;2022-12-18T21:16:14;-3.60;69.10
45233;DHT22;30969;51.052;17.056;2022-12-18T21:21:19;-3.60;69.20
45233;DHT22;30969;51.052;17.056;2022-12-18T21:26:33;-3.60;69.10
45233;DHT22;30969;51.052;17.056;2022-12-18T21:31:53;-3.60;69.10
45233;DHT22;30969;51.052;17.056;2022-12-18T21:37:05;-3.60;70.10
45233;DHT22;30969;51.052;17.056;2022-12-18T21:42:12;-3.60;69.20
45233;DHT22;30969;51.052;17.056;2022-12-18T21:47:36;-3.60;69.30
45233;DHT22;30969;51.052;17.056;2022-12-18T21:52:46;-3.60;69.40
45233;DHT22;30969;51.052;17.056;2022-12-18T21:57:53;-3.60;69.40
45233;DHT22;30969;51.052;17.056;2022-12-18T22:02:57;-3.60;69.30
45233;DHT22;30969;51.052;17.056;2022-12-18T22:08:22;-3.60;69.30
45233;DHT22;30969;51.052;17.056;2022-12-18T22:13:27;-3.60;69.30
45233;DHT22;30969;51.052;17.056;2022-12-18T22:18:30;-3.60;69.20
45233;DHT22;30969;51.052;17.056;2022-12-18T22:23:35;-3.70;69.10
45233;DHT22;30969;51.052;17.056;2022-12-18T22:28:38;-3.60;69.30
45233;DHT22;30969;51.052;17.056;2022-12-18T22:34:00;-3.60;69.30
45233;DHT22;30969;51.052;17.056;2022-12-18T22:39:05;-3.60;69.30
45233;DHT22;30969;51.052;17.056;2022-12-18T22:44:09;-3.60;69.20
45233;DHT22;30969;51.052;17.056;2022-12-18T22:49:17;-3.60;69.30
45233;DHT22;30969;51.052;17.056;2022-12-18T22:54:22;-3.70;69.10
45233;DHT22;30969;51.052;17.056;2022-12-18T22:59:26;-3.70;69.10
45233;DHT22;30969;51.052;17.056;2022-12-18T23:04:30;-3.70;69.10
45233;DHT22;30969;51.052;17.056;2022-12-18T23:09:39;-3.70;69.00
45233;DHT22;30969;51.052;17.056;2022-12-18T23:14:43;-3.70;68.90
45233;DHT22;30969;51.052;17.056;2022-12-18T23:19:48;-3.70;69.80
45233;DHT22;30969;51.052;17.056;2022-12-18T23:24:53;-3.70;68.80
45233;DHT22;30969;51.052;17.056;2022-12-18T23:29:57;-3.80;68.70
45233;DHT22;30969;51.052;17.056;2022-12-18T23:35:01;-3.80;68.80
45233;DHT22;30969;51.052;17.056;2022-12-18T23:40:08;-3.80;68.80
45233;DHT22;30969;51.052;17.056;2022-12-18T23:45:12;-3.80;68.80
45233;DHT22;30969;51.052;17.056;2022-12-18T23:50:20;-3.90;69.70
45233;DHT22;30969;51.052;17.056;2022-12-18T23:55:36;-3.90;68.60
